Kezdőlap
METAR-TAF:

METAR-TAF

Repülőterek :

Trieszt-Ronchi dei Legionari, Olaszország

földrajzi szélesség: 45-49N, földrajzi hosszúság: 013-29E, magasság: 12 m

Jelenlegi meteorológiai megfigyelések

A jelentés 37 perccel ezelõtt készült, 12:50 UTC
Dél-délnyugati szél 4 kt, dél-délkeleti és nyugati között változik
Hőmérséklet 15°C
Páratartalom 72%
Légköri nyomás 1023 hPa
Látótávolság 10 km, vagy több
Szórványos felhőzet 6500 lábon

METAR: LIPQ 181250Z 21004KT 160V260 9999 SCT065 15/10 Q1023

Idő: 14:27 (13:27 UTC)

Előrejelzés

A jelentés 2 órával és 27 perccel ezelõtt készült, 11:00 UTC
Az előrejelzés 18-én 12 óra UTC és 19-én 12 óra UTC között érvényes
Különbözõ irányokból fújó szél 5 kt
Látótávolság: 8000 m
Szórványos felhőzet 2000 lábon
Szakadozott felhőzet 4000 lábon
18-én 12 óra UTC és 18-én 16 óra UTC között ideiglenes
szitálás

TAF: LIPQ 181100Z 1812/1912 VRB05KT 8000 SCT020 BKN040 TEMPO 1812/1816 DZ

Meteorológiai megfigyelések és előrejelzések több, mint 4000 repülőtéren (METAR és TAF jelentéseket).

A térképen piros és sárga pontok jelzik az elérhető meteorológiai állomásokat.

Mozgassa az egeret a pont fölött, hogy megjelenjen az állomás neve.

Azután kattintson az időjárási megfigyelések és előrejelzések megtekintéséhez.

A térkép megváltoztatása: kattintson a fekete keresztel jelölt zöld gombra ráközelítéshez, a vonallal jelölt zöld gombra távolításhoz, vagy a zöld nyilakra a szomszédos térképek eléréséhez.


METAR-TAF: